sensor_id;sensor_type;location;lat;lon;timestamp;pressure;altitude;pressure_sealevel;temperature;humidity
76864;BME280;65834;52.364;9.754;2023-08-24T00:01:37;101196.59;;;20.83;64.67
76864;BME280;65834;52.364;9.754;2023-08-24T00:04:07;101191.34;;;20.82;64.65
76864;BME280;65834;52.364;9.754;2023-08-24T00:06:37;101197.69;;;20.82;64.86
76864;BME280;65834;52.364;9.754;2023-08-24T00:09:07;101196.00;;;20.81;64.85
76864;BME280;65834;52.364;9.754;2023-08-24T00:11:36;101193.47;;;20.80;64.98
76864;BME280;65834;52.364;9.754;2023-08-24T00:14:06;101194.56;;;20.79;64.99
76864;BME280;65834;52.364;9.754;2023-08-24T00:16:38;101196.97;;;20.75;65.15
76864;BME280;65834;52.364;9.754;2023-08-24T00:19:08;101203.06;;;20.77;65.01
76864;BME280;65834;52.364;9.754;2023-08-24T00:21:37;101198.41;;;20.78;65.08
76864;BME280;65834;52.364;9.754;2023-08-24T00:24:07;101205.31;;;20.80;65.19
76864;BME280;65834;52.364;9.754;2023-08-24T00:26:37;101205.56;;;20.79;65.40
76864;BME280;65834;52.364;9.754;2023-08-24T00:29:06;101203.16;;;20.71;65.93
76864;BME280;65834;52.364;9.754;2023-08-24T00:31:39;101200.31;;;20.66;66.46
76864;BME280;65834;52.364;9.754;2023-08-24T00:34:09;101202.84;;;20.67;66.99
76864;BME280;65834;52.364;9.754;2023-08-24T00:36:39;101202.22;;;20.65;67.91
76864;BME280;65834;52.364;9.754;2023-08-24T00:39:09;101198.88;;;20.63;68.11
76864;BME280;65834;52.364;9.754;2023-08-24T00:41:38;101199.72;;;20.64;68.00
76864;BME280;65834;52.364;9.754;2023-08-24T00:44:08;101197.94;;;20.58;67.89
76864;BME280;65834;52.364;9.754;2023-08-24T00:46:41;101188.72;;;20.52;67.65
76864;BME280;65834;52.364;9.754;2023-08-24T00:49:11;101191.13;;;20.48;67.71
76864;BME280;65834;52.364;9.754;2023-08-24T00:51:41;101182.50;;;20.45;67.63
76864;BME280;65834;52.364;9.754;2023-08-24T00:54:11;101192.66;;;20.44;67.19
76864;BME280;65834;52.364;9.754;2023-08-24T00:56:41;101183.84;;;20.42;66.72
76864;BME280;65834;52.364;9.754;2023-08-24T00:59:11;101189.34;;;20.42;66.76
76864;BME280;65834;52.364;9.754;2023-08-24T01:01:45;101182.63;;;20.38;66.40
76864;BME280;65834;52.364;9.754;2023-08-24T01:04:16;101181.91;;;20.43;66.22
76864;BME280;65834;52.364;9.754;2023-08-24T01:06:46;101179.16;;;20.43;65.89
76864;BME280;65834;52.364;9.754;2023-08-24T01:09:16;101184.78;;;20.36;65.74
76864;BME280;65834;52.364;9.754;2023-08-24T01:11:57;101180.00;;;20.32;65.69
76864;BME280;65834;52.364;9.754;2023-08-24T01:14:36;101179.63;;;20.28;66.05
76864;BME280;65834;52.364;9.754;2023-08-24T01:17:14;101174.19;;;20.22;65.63
76864;BME280;65834;52.364;9.754;2023-08-24T01:19:46;101176.84;;;20.17;65.56
76864;BME280;65834;52.364;9.754;2023-08-24T01:22:24;101174.31;;;20.15;66.08
76864;BME280;65834;52.364;9.754;2023-08-24T01:25:04;101177.31;;;20.14;65.92
76864;BME280;65834;52.364;9.754;2023-08-24T01:27:37;101178.16;;;20.14;65.71
76864;BME280;65834;52.364;9.754;2023-08-24T01:30:10;101190.47;;;20.12;65.76
76864;BME280;65834;52.364;9.754;2023-08-24T01:32:40;101184.72;;;20.13;65.92
76864;BME280;65834;52.364;9.754;2023-08-24T01:35:10;101180.53;;;20.11;65.74
76864;BME280;65834;52.364;9.754;2023-08-24T01:40:23;101176.69;;;20.00;66.11
76864;BME280;65834;52.364;9.754;2023-08-24T01:42:59;101176.69;;;20.00;66.62
76864;BME280;65834;52.364;9.754;2023-08-24T01:45:32;101168.53;;;19.93;66.46
76864;BME280;65834;52.364;9.754;2023-08-24T01:48:03;101170.78;;;19.85;66.46
76864;BME280;65834;52.364;9.754;2023-08-24T01:50:34;101167.00;;;19.86;66.77
76864;BME280;65834;52.364;9.754;2023-08-24T01:53:04;101170.41;;;19.81;66.68
76864;BME280;65834;52.364;9.754;2023-08-24T01:55:34;101168.50;;;19.82;67.18
76864;BME280;65834;52.364;9.754;2023-08-24T01:58:08;101174.00;;;19.82;67.04
76864;BME280;65834;52.364;9.754;2023-08-24T02:00:37;101166.63;;;19.82;67.03
76864;BME280;65834;52.364;9.754;2023-08-24T02:03:08;101178.66;;;19.81;66.87
76864;BME280;65834;52.364;9.754;2023-08-24T02:05:37;101169.44;;;19.76;66.93
76864;BME280;65834;52.364;9.754;2023-08-24T02:08:07;101169.69;;;19.74;67.57
76864;BME280;65834;52.364;9.754;2023-08-24T02:10:36;101173.28;;;19.75;67.52
76864;BME280;65834;52.364;9.754;2023-08-24T02:13:09;101176.50;;;19.72;67.72
76864;BME280;65834;52.364;9.754;2023-08-24T02:15:38;101171.44;;;19.69;67.88
76864;BME280;65834;52.364;9.754;2023-08-24T02:18:08;101165.84;;;19.64;67.81
76864;BME280;65834;52.364;9.754;2023-08-24T02:20:38;101165.38;;;19.67;67.90
76864;BME280;65834;52.364;9.754;2023-08-24T02:23:08;101164.91;;;19.70;67.60
76864;BME280;65834;52.364;9.754;2023-08-24T02:25:42;101152.03;;;19.70;67.54
76864;BME280;65834;52.364;9.754;2023-08-24T02:28:14;101152.41;;;19.74;67.84
76864;BME280;65834;52.364;9.754;2023-08-24T02:30:44;101155.72;;;19.76;67.61
76864;BME280;65834;52.364;9.754;2023-08-24T02:33:16;101153.44;;;19.73;67.55
76864;BME280;65834;52.364;9.754;2023-08-24T02:35:47;101164.53;;;19.66;67.57
76864;BME280;65834;52.364;9.754;2023-08-24T02:38:16;101157.84;;;19.62;68.13
76864;BME280;65834;52.364;9.754;2023-08-24T02:40:46;101153.81;;;19.65;68.10
76864;BME280;65834;52.364;9.754;2023-08-24T02:43:18;101158.44;;;19.64;68.26
76864;BME280;65834;52.364;9.754;2023-08-24T02:45:47;101150.44;;;19.63;68.17
76864;BME280;65834;52.364;9.754;2023-08-24T02:48:17;101149.00;;;19.60;68.54
76864;BME280;65834;52.364;9.754;2023-08-24T02:50:47;101135.53;;;19.59;68.44
76864;BME280;65834;52.364;9.754;2023-08-24T02:53:16;101141.59;;;19.61;68.18
76864;BME280;65834;52.364;9.754;2023-08-24T02:55:46;101143.13;;;19.57;68.53
76864;BME280;65834;52.364;9.754;2023-08-24T02:58:18;101129.41;;;19.57;68.34
76864;BME280;65834;52.364;9.754;2023-08-24T03:00:48;101131.69;;;19.60;68.34
76864;BME280;65834;52.364;9.754;2023-08-24T03:03:18;101131.34;;;19.56;68.59
76864;BME280;65834;52.364;9.754;2023-08-24T03:05:54;101129.19;;;19.58;68.16
76864;BME280;65834;52.364;9.754;2023-08-24T03:08:26;101117.25;;;19.53;68.41
76864;BME280;65834;52.364;9.754;2023-08-24T03:10:56;101117.25;;;19.53;68.50
76864;BME280;65834;52.364;9.754;2023-08-24T03:13:29;101118.56;;;19.50;68.44
76864;BME280;65834;52.364;9.754;2023-08-24T03:16:03;101114.13;;;19.49;68.68
76864;BME280;65834;52.364;9.754;2023-08-24T03:18:35;101123.22;;;19.50;68.92
76864;BME280;65834;52.364;9.754;2023-08-24T03:21:05;101117.34;;;19.46;69.07
76864;BME280;65834;52.364;9.754;2023-08-24T03:23:34;101129.16;;;19.46;68.97
76864;BME280;65834;52.364;9.754;2023-08-24T03:26:06;101126.50;;;19.40;69.07
76864;BME280;65834;52.364;9.754;2023-08-24T03:28:38;101137.91;;;19.37;69.22
76864;BME280;65834;52.364;9.754;2023-08-24T03:31:07;101135.59;;;19.40;69.33
76864;BME280;65834;52.364;9.754;2023-08-24T03:33:37;101127.34;;;19.40;69.24
76864;BME280;65834;52.364;9.754;2023-08-24T03:36:07;101123.94;;;19.38;69.72
76864;BME280;65834;52.364;9.754;2023-08-24T03:38:36;101126.09;;;19.36;69.68
76864;BME280;65834;52.364;9.754;2023-08-24T03:41:04;101138.13;;;19.35;70.29
76864;BME280;65834;52.364;9.754;2023-08-24T03:43:34;101140.88;;;19.35;70.51
76864;BME280;65834;52.364;9.754;2023-08-24T03:46:06;101140.88;;;19.35;70.88
76864;BME280;65834;52.364;9.754;2023-08-24T03:48:39;101143.34;;;19.25;71.36
76864;BME280;65834;52.364;9.754;2023-08-24T03:51:09;101126.28;;;19.23;71.39
76864;BME280;65834;52.364;9.754;2023-08-24T03:53:39;101125.22;;;19.24;71.45
76864;BME280;65834;52.364;9.754;2023-08-24T03:56:10;101134.50;;;19.23;71.34
76864;BME280;65834;52.364;9.754;2023-08-24T03:58:40;101137.50;;;19.22;71.28
76864;BME280;65834;52.364;9.754;2023-08-24T04:01:13;101141.28;;;19.21;71.36
76864;BME280;65834;52.364;9.754;2023-08-24T04:03:42;101135.69;;;19.16;71.51
76864;BME280;65834;52.364;9.754;2023-08-24T04:06:13;101139.25;;;19.16;71.38
76864;BME280;65834;52.364;9.754;2023-08-24T04:08:43;101149.59;;;19.14;71.45
76864;BME280;65834;52.364;9.754;2023-08-24T04:11:12;101147.94;;;19.13;71.51
76864;BME280;65834;52.364;9.754;2023-08-24T04:13:42;101161.41;;;19.15;71.43
76864;BME280;65834;52.364;9.754;2023-08-24T04:16:15;101172.31;;;19.03;72.10
76864;BME280;65834;52.364;9.754;2023-08-24T04:18:45;101173.84;;;18.99;72.28
76864;BME280;65834;52.364;9.754;2023-08-24T04:21:14;101166.22;;;19.01;72.15
76864;BME280;65834;52.364;9.754;2023-08-24T04:23:44;101171.34;;;18.98;72.52
76864;BME280;65834;52.364;9.754;2023-08-24T04:26:14;101166.06;;;18.96;72.57
76864;BME280;65834;52.364;9.754;2023-08-24T04:28:43;101150.34;;;18.91;72.93
76864;BME280;65834;52.364;9.754;2023-08-24T04:31:15;101163.34;;;18.96;72.51
76864;BME280;65834;52.364;9.754;2023-08-24T04:33:45;101171.41;;;18.91;72.50
76864;BME280;65834;52.364;9.754;2023-08-24T04:36:15;101178.22;;;18.88;72.80
76864;BME280;65834;52.364;9.754;2023-08-24T04:38:44;101171.63;;;18.89;72.98
76864;BME280;65834;52.364;9.754;2023-08-24T04:41:15;101174.63;;;18.88;72.80
76864;BME280;65834;52.364;9.754;2023-08-24T04:43:45;101163.19;;;18.91;73.07
76864;BME280;65834;52.364;9.754;2023-08-24T04:46:17;101161.31;;;18.91;72.96
76864;BME280;65834;52.364;9.754;2023-08-24T04:48:47;101160.59;;;18.96;72.90
76864;BME280;65834;52.364;9.754;2023-08-24T04:51:17;101163.34;;;18.96;73.02
76864;BME280;65834;52.364;9.754;2023-08-24T04:53:46;101171.94;;;19.00;73.39
76864;BME280;65834;52.364;9.754;2023-08-24T04:56:16;101183.50;;;19.02;73.34
76864;BME280;65834;52.364;9.754;2023-08-24T04:58:53;101182.59;;;19.08;73.40
76864;BME280;65834;52.364;9.754;2023-08-24T05:01:26;101174.53;;;19.13;73.25
76864;BME280;65834;52.364;9.754;2023-08-24T05:03:58;101176.56;;;19.17;73.15
76864;BME280;65834;52.364;9.754;2023-08-24T05:06:27;101171.84;;;19.24;72.73
76864;BME280;65834;52.364;9.754;2023-08-24T05:08:57;101166.97;;;19.26;72.49
76864;BME280;65834;52.364;9.754;2023-08-24T05:11:33;101164.84;;;19.28;72.61
76864;BME280;65834;52.364;9.754;2023-08-24T05:14:03;101166.03;;;19.32;72.55
76864;BME280;65834;52.364;9.754;2023-08-24T05:16:35;101171.31;;;19.34;72.45
76864;BME280;65834;52.364;9.754;2023-08-24T05:19:05;101161.16;;;19.34;72.73
76864;BME280;65834;52.364;9.754;2023-08-24T05:21:34;101145.31;;;19.36;72.50
76864;BME280;65834;52.364;9.754;2023-08-24T05:24:04;101142.34;;;19.38;72.25
76864;BME280;65834;52.364;9.754;2023-08-24T05:26:34;101151.56;;;19.43;72.55
76864;BME280;65834;52.364;9.754;2023-08-24T05:29:03;101144.41;;;19.42;72.39
76864;BME280;65834;52.364;9.754;2023-08-24T05:31:36;101153.59;;;19.48;72.14
76864;BME280;65834;52.364;9.754;2023-08-24T05:34:05;101159.47;;;19.52;71.85
76864;BME280;65834;52.364;9.754;2023-08-24T05:36:35;101152.47;;;19.56;72.09
76864;BME280;65834;52.364;9.754;2023-08-24T05:39:04;101170.34;;;19.58;71.50
76864;BME280;65834;52.364;9.754;2023-08-24T05:41:34;101173.94;;;19.59;71.27
76864;BME280;65834;52.364;9.754;2023-08-24T05:44:05;101179.19;;;19.60;71.26
76864;BME280;65834;52.364;9.754;2023-08-24T05:46:37;101178.72;;;19.63;71.06
76864;BME280;65834;52.364;9.754;2023-08-24T05:49:07;101183.16;;;19.64;71.36
76864;BME280;65834;52.364;9.754;2023-08-24T05:51:36;101183.38;;;19.63;71.38
76864;BME280;65834;52.364;9.754;2023-08-24T05:54:06;101194.13;;;19.64;71.58
76864;BME280;65834;52.364;9.754;2023-08-24T05:56:36;101178.41;;;19.71;71.57
76864;BME280;65834;52.364;9.754;2023-08-24T05:59:05;101168.28;;;19.72;71.40
76864;BME280;65834;52.364;9.754;2023-08-24T06:01:37;101160.38;;;19.75;71.26
76864;BME280;65834;52.364;9.754;2023-08-24T06:04:08;101151.19;;;19.81;71.36
76864;BME280;65834;52.364;9.754;2023-08-24T06:06:38;101136.66;;;19.81;71.50
76864;BME280;65834;52.364;9.754;2023-08-24T06:09:07;101130.31;;;19.80;71.39
76864;BME280;65834;52.364;9.754;2023-08-24T06:11:37;101127.13;;;19.83;71.55
76864;BME280;65834;52.364;9.754;2023-08-24T06:14:07;101121.25;;;19.80;71.60
76864;BME280;65834;52.364;9.754;2023-08-24T06:16:39;101123.41;;;19.78;71.92
76864;BME280;65834;52.364;9.754;2023-08-24T06:19:09;101126.16;;;19.78;71.72
76864;BME280;65834;52.364;9.754;2023-08-24T06:21:39;101120.03;;;19.76;71.53
76864;BME280;65834;52.364;9.754;2023-08-24T06:24:08;101118.84;;;19.72;71.98
76864;BME280;65834;52.364;9.754;2023-08-24T06:26:38;101118.38;;;19.75;71.92
76864;BME280;65834;52.364;9.754;2023-08-24T06:29:08;101117.91;;;19.78;71.75
76864;BME280;65834;52.364;9.754;2023-08-24T06:31:40;101108.72;;;19.84;71.90
76864;BME280;65834;52.364;9.754;2023-08-24T06:34:09;101106.31;;;19.87;71.53
76864;BME280;65834;52.364;9.754;2023-08-24T06:36:39;101112.28;;;19.84;71.18
76864;BME280;65834;52.364;9.754;2023-08-24T06:39:09;101109.78;;;19.83;71.55
76864;BME280;65834;52.364;9.754;2023-08-24T06:41:39;101108.47;;;19.85;71.56
76864;BME280;65834;52.364;9.754;2023-08-24T06:44:09;101108.47;;;19.85;71.32
76864;BME280;65834;52.364;9.754;2023-08-24T06:46:41;101098.09;;;19.87;71.42
76864;BME280;65834;52.364;9.754;2023-08-24T06:49:10;101089.84;;;19.87;71.36
76864;BME280;65834;52.364;9.754;2023-08-24T06:51:40;101099.53;;;19.90;71.52
76864;BME280;65834;52.364;9.754;2023-08-24T06:54:10;101086.50;;;19.85;71.01
76864;BME280;65834;52.364;9.754;2023-08-24T06:56:41;101092.84;;;19.86;71.05
76864;BME280;65834;52.364;9.754;2023-08-24T06:59:10;101097.88;;;19.89;70.95
76864;BME280;65834;52.364;9.754;2023-08-24T07:01:43;101099.06;;;19.93;71.08
76864;BME280;65834;52.364;9.754;2023-08-24T07:04:14;101098.81;;;19.94;71.13
76864;BME280;65834;52.364;9.754;2023-08-24T07:06:44;101103.25;;;19.95;71.24
76864;BME280;65834;52.364;9.754;2023-08-24T07:09:14;101103.63;;;19.99;71.32
76864;BME280;65834;52.364;9.754;2023-08-24T07:11:45;101110.06;;;20.05;70.89
76864;BME280;65834;52.364;9.754;2023-08-24T07:14:14;101116.16;;;20.07;70.75
76864;BME280;65834;52.364;9.754;2023-08-24T07:16:47;101112.91;;;20.10;70.88
76864;BME280;65834;52.364;9.754;2023-08-24T07:19:16;101109.22;;;20.16;70.31
76864;BME280;65834;52.364;9.754;2023-08-24T07:21:46;101106.72;;;20.14;69.90
76864;BME280;65834;52.364;9.754;2023-08-24T07:24:16;101108.16;;;20.17;69.84
76864;BME280;65834;52.364;9.754;2023-08-24T07:27:00;101100.28;;;20.20;69.56
76864;BME280;65834;52.364;9.754;2023-08-24T07:29:30;101102.53;;;20.23;69.60
76864;BME280;65834;52.364;9.754;2023-08-24T07:32:02;101099.44;;;20.20;69.38
76864;BME280;65834;52.364;9.754;2023-08-24T07:34:32;101092.88;;;20.21;69.42
76864;BME280;65834;52.364;9.754;2023-08-24T07:37:02;101088.56;;;20.25;69.75
76864;BME280;65834;52.364;9.754;2023-08-24T07:39:32;101082.63;;;20.28;69.55
76864;BME280;65834;52.364;9.754;2023-08-24T07:42:03;101085.72;;;20.31;68.96
76864;BME280;65834;52.364;9.754;2023-08-24T07:44:32;101084.41;;;20.34;69.05
76864;BME280;65834;52.364;9.754;2023-08-24T07:47:05;101081.16;;;20.37;68.97
76864;BME280;65834;52.364;9.754;2023-08-24T07:49:34;101071.28;;;20.36;68.89
76864;BME280;65834;52.364;9.754;2023-08-24T07:52:10;101062.78;;;20.37;69.50
76864;BME280;65834;52.364;9.754;2023-08-24T07:54:40;101061.72;;;20.38;69.43
76864;BME280;65834;52.364;9.754;2023-08-24T07:57:10;101063.97;;;20.41;69.22
76864;BME280;65834;52.364;9.754;2023-08-24T07:59:40;101058.00;;;20.44;68.80
76864;BME280;65834;52.364;9.754;2023-08-24T08:02:12;101058.34;;;20.48;69.00
76864;BME280;65834;52.364;9.754;2023-08-24T08:04:42;101047.72;;;20.51;69.12
76864;BME280;65834;52.364;9.754;2023-08-24T08:07:11;101056.28;;;20.55;68.71
76864;BME280;65834;52.364;9.754;2023-08-24T08:09:42;101051.41;;;20.57;69.01
76864;BME280;65834;52.364;9.754;2023-08-24T08:12:12;101049.50;;;20.58;68.84
76864;BME280;65834;52.364;9.754;2023-08-24T08:14:41;101047.91;;;20.62;68.66
76864;BME280;65834;52.364;9.754;2023-08-24T08:17:13;101040.28;;;20.64;68.38
76864;BME280;65834;52.364;9.754;2023-08-24T08:19:43;101045.50;;;20.65;68.10
76864;BME280;65834;52.364;9.754;2023-08-24T08:22:13;101041.44;;;20.68;68.27
76864;BME280;65834;52.364;9.754;2023-08-24T08:24:42;101049.44;;;20.69;68.12
76864;BME280;65834;52.364;9.754;2023-08-24T08:27:12;101047.63;;;20.75;68.20
76864;BME280;65834;52.364;9.754;2023-08-24T08:29:41;101044.88;;;20.75;67.99
76864;BME280;65834;52.364;9.754;2023-08-24T08:32:14;101053.22;;;20.80;67.89
76864;BME280;65834;52.364;9.754;2023-08-24T08:34:43;101053.84;;;20.82;68.14
76864;BME280;65834;52.364;9.754;2023-08-24T08:37:13;101054.41;;;20.84;67.73
76864;BME280;65834;52.364;9.754;2023-08-24T08:39:42;101052.50;;;20.84;67.18
76864;BME280;65834;52.364;9.754;2023-08-24T08:42:13;101049.28;;;20.87;67.31
76864;BME280;65834;52.364;9.754;2023-08-24T08:44:46;101051.53;;;20.90;67.37
76864;BME280;65834;52.364;9.754;2023-08-24T08:47:21;101059.28;;;20.93;67.17
76864;BME280;65834;52.364;9.754;2023-08-24T08:49:52;101057.38;;;20.94;66.87
76864;BME280;65834;52.364;9.754;2023-08-24T08:52:23;101050.06;;;20.99;67.75
76864;BME280;65834;52.364;9.754;2023-08-24T08:54:53;101052.81;;;20.99;66.82
76864;BME280;65834;52.364;9.754;2023-08-24T08:57:24;101050.63;;;21.01;66.87
76864;BME280;65834;52.364;9.754;2023-08-24T08:59:57;101044.91;;;21.03;67.38
76864;BME280;65834;52.364;9.754;2023-08-24T09:02:30;101041.66;;;21.06;67.42
76864;BME280;65834;52.364;9.754;2023-08-24T09:05:01;101043.13;;;21.08;66.43
76864;BME280;65834;52.364;9.754;2023-08-24T09:07:32;101039.63;;;21.13;66.37
76864;BME280;65834;52.364;9.754;2023-08-24T09:10:03;101045.16;;;21.13;66.38
76864;BME280;65834;52.364;9.754;2023-08-24T09:12:34;101048.47;;;21.15;66.42
76864;BME280;65834;52.364;9.754;2023-08-24T09:15:05;101039.94;;;21.17;66.69
76864;BME280;65834;52.364;9.754;2023-08-24T09:17:42;101033.97;;;21.20;66.32
76864;BME280;65834;52.364;9.754;2023-08-24T09:20:13;101026.88;;;21.24;66.41
76864;BME280;65834;52.364;9.754;2023-08-24T09:22:43;101022.81;;;21.26;66.29
76864;BME280;65834;52.364;9.754;2023-08-24T09:25:13;101028.66;;;21.30;66.13
76864;BME280;65834;52.364;9.754;2023-08-24T09:27:43;101021.81;;;21.32;66.32
76864;BME280;65834;52.364;9.754;2023-08-24T09:30:12;101014.50;;;21.38;66.04
76864;BME280;65834;52.364;9.754;2023-08-24T09:32:44;101000.47;;;21.39;65.90
76864;BME280;65834;52.364;9.754;2023-08-24T09:35:14;100996.97;;;21.44;65.93
76864;BME280;65834;52.364;9.754;2023-08-24T09:37:44;101004.97;;;21.45;65.16
76864;BME280;65834;52.364;9.754;2023-08-24T09:40:14;101012.50;;;21.50;65.91
76864;BME280;65834;52.364;9.754;2023-08-24T09:42:43;101007.56;;;21.52;65.24
76864;BME280;65834;52.364;9.754;2023-08-24T09:45:13;101002.41;;;21.55;65.49
76864;BME280;65834;52.364;9.754;2023-08-24T09:47:49;100993.63;;;21.58;65.38
76864;BME280;65834;52.364;9.754;2023-08-24T09:50:20;100986.06;;;21.66;64.85
76864;BME280;65834;52.364;9.754;2023-08-24T09:52:53;100985.03;;;21.72;64.69
76864;BME280;65834;52.364;9.754;2023-08-24T09:55:24;100981.44;;;21.71;64.75
76864;BME280;65834;52.364;9.754;2023-08-24T09:57:58;100974.16;;;21.82;64.16
76864;BME280;65834;52.364;9.754;2023-08-24T10:00:31;100968.09;;;21.80;64.15
76864;BME280;65834;52.364;9.754;2023-08-24T10:03:04;100959.56;;;21.81;64.53
76864;BME280;65834;52.364;9.754;2023-08-24T10:05:34;100942.78;;;21.83;64.38
76864;BME280;65834;52.364;9.754;2023-08-24T10:08:21;100942.13;;;21.92;64.21
76864;BME280;65834;52.364;9.754;2023-08-24T10:10:53;100952.66;;;21.95;64.09
76864;BME280;65834;52.364;9.754;2023-08-24T10:13:31;100937.06;;;22.06;63.51
76864;BME280;65834;52.364;9.754;2023-08-24T10:16:03;100950.94;;;22.11;63.34
76864;BME280;65834;52.364;9.754;2023-08-24T10:18:36;100938.75;;;22.07;63.21
76864;BME280;65834;52.364;9.754;2023-08-24T10:21:07;100939.44;;;22.19;62.58
76864;BME280;65834;52.364;9.754;2023-08-24T10:23:37;100932.03;;;22.20;63.03
76864;BME280;65834;52.364;9.754;2023-08-24T10:26:08;100930.66;;;22.22;62.38
76864;BME280;65834;52.364;9.754;2023-08-24T10:28:40;100929.13;;;22.31;61.91
76864;BME280;65834;52.364;9.754;2023-08-24T10:31:11;100923.09;;;22.34;62.26
76864;BME280;65834;52.364;9.754;2023-08-24T10:33:45;100916.81;;;22.39;62.42
76864;BME280;65834;52.364;9.754;2023-08-24T10:36:15;100914.97;;;22.44;62.59
76864;BME280;65834;52.364;9.754;2023-08-24T10:38:45;100904.81;;;22.50;62.32
76864;BME280;65834;52.364;9.754;2023-08-24T10:41:14;100901.84;;;22.56;62.65
76864;BME280;65834;52.364;9.754;2023-08-24T10:43:49;100913.97;;;22.55;62.33
76864;BME280;65834;52.364;9.754;2023-08-24T10:46:18;100913.19;;;22.60;61.93
76864;BME280;65834;52.364;9.754;2023-08-24T10:49:00;100916.63;;;22.67;60.44
76864;BME280;65834;52.364;9.754;2023-08-24T10:51:30;100905.84;;;22.65;60.85
76864;BME280;65834;52.364;9.754;2023-08-24T10:54:00;100911.91;;;22.67;61.06
76864;BME280;65834;52.364;9.754;2023-08-24T10:56:35;100914.75;;;22.73;60.96
76864;BME280;65834;52.364;9.754;2023-08-24T10:59:13;100914.81;;;22.83;59.90
76864;BME280;65834;52.364;9.754;2023-08-24T11:01:54;100917.59;;;22.83;60.57
76864;BME280;65834;52.364;9.754;2023-08-24T11:04:27;100913.22;;;22.87;60.65
76864;BME280;65834;52.364;9.754;2023-08-24T11:06:58;100914.38;;;22.91;60.72
76864;BME280;65834;52.364;9.754;2023-08-24T11:09:45;100913.25;;;22.92;60.71
76864;BME280;65834;52.364;9.754;2023-08-24T11:12:15;100917.47;;;22.99;61.06
76864;BME280;65834;52.364;9.754;2023-08-24T11:14:52;100902.06;;;23.03;61.04
76864;BME280;65834;52.364;9.754;2023-08-24T11:17:29;100912.63;;;23.11;61.34
76864;BME280;65834;52.364;9.754;2023-08-24T11:20:03;100896.88;;;23.07;60.70
76864;BME280;65834;52.364;9.754;2023-08-24T11:22:34;100902.41;;;23.12;60.51
76864;BME280;65834;52.364;9.754;2023-08-24T11:25:05;100896.63;;;23.13;60.56
76864;BME280;65834;52.364;9.754;2023-08-24T11:27:35;100891.69;;;23.15;60.15
76864;BME280;65834;52.364;9.754;2023-08-24T11:30:07;100887.59;;;23.23;59.42
76864;BME280;65834;52.364;9.754;2023-08-24T11:32:37;100893.69;;;23.25;59.54
76864;BME280;65834;52.364;9.754;2023-08-24T11:35:10;100893.16;;;23.28;59.22
76864;BME280;65834;52.364;9.754;2023-08-24T11:37:40;100885.47;;;23.35;59.09
76864;BME280;65834;52.364;9.754;2023-08-24T11:40:16;100881.97;;;23.40;58.98
76864;BME280;65834;52.364;9.754;2023-08-24T11:42:47;100883.13;;;23.49;57.78
76864;BME280;65834;52.364;9.754;2023-08-24T11:45:18;100874.03;;;23.53;58.25
76864;BME280;65834;52.364;9.754;2023-08-24T11:47:48;100855.88;;;23.62;58.13
76864;BME280;65834;52.364;9.754;2023-08-24T11:50:23;100847.28;;;23.59;57.96
76864;BME280;65834;52.364;9.754;2023-08-24T11:52:53;100839.03;;;23.64;57.57
76864;BME280;65834;52.364;9.754;2023-08-24T11:55:23;100833.28;;;23.75;57.40
76864;BME280;65834;52.364;9.754;2023-08-24T11:57:53;100832.78;;;23.89;57.32
76864;BME280;65834;52.364;9.754;2023-08-24T12:00:23;100828.09;;;23.94;56.79
76864;BME280;65834;52.364;9.754;2023-08-24T12:02:53;100823.69;;;23.93;57.26
76864;BME280;65834;52.364;9.754;2023-08-24T12:05:26;100811.25;;;23.96;56.84
76864;BME280;65834;52.364;9.754;2023-08-24T12:07:56;100801.31;;;24.00;55.36
76864;BME280;65834;52.364;9.754;2023-08-24T12:10:27;100789.44;;;24.09;56.32
76864;BME280;65834;52.364;9.754;2023-08-24T12:13:04;100787.22;;;24.01;55.78
76864;BME280;65834;52.364;9.754;2023-08-24T12:15:40;100783.94;;;24.04;55.29
76864;BME280;65834;52.364;9.754;2023-08-24T12:18:11;100787.03;;;24.23;54.86
76864;BME280;65834;52.364;9.754;2023-08-24T12:20:44;100776.50;;;24.15;55.38
76864;BME280;65834;52.364;9.754;2023-08-24T12:23:13;100777.63;;;24.19;55.20
76864;BME280;65834;52.364;9.754;2023-08-24T12:25:43;100763.00;;;24.23;55.32
76864;BME280;65834;52.364;9.754;2023-08-24T12:28:15;100751.66;;;24.25;54.53
76864;BME280;65834;52.364;9.754;2023-08-24T12:30:47;100758.88;;;24.36;54.45
76864;BME280;65834;52.364;9.754;2023-08-24T12:33:28;100762.75;;;24.45;54.63
76864;BME280;65834;52.364;9.754;2023-08-24T12:36:00;100754.69;;;24.49;52.75
76864;BME280;65834;52.364;9.754;2023-08-24T12:38:30;100743.38;;;24.45;53.08
76864;BME280;65834;52.364;9.754;2023-08-24T12:41:01;100744.22;;;24.51;53.84
76864;BME280;65834;52.364;9.754;2023-08-24T12:43:31;100733.69;;;24.53;53.84
76864;BME280;65834;52.364;9.754;2023-08-24T12:46:02;100735.63;;;24.62;52.83
76864;BME280;65834;52.364;9.754;2023-08-24T12:48:32;100734.53;;;24.63;53.89
76864;BME280;65834;52.364;9.754;2023-08-24T12:51:04;100727.06;;;24.64;53.05
76864;BME280;65834;52.364;9.754;2023-08-24T12:53:34;100730.09;;;24.62;53.98
76864;BME280;65834;52.364;9.754;2023-08-24T12:56:04;100730.63;;;24.74;53.99
76864;BME280;65834;52.364;9.754;2023-08-24T12:58:33;100727.91;;;24.85;52.85
76864;BME280;65834;52.364;9.754;2023-08-24T13:01:03;100733.69;;;24.83;52.88
76864;BME280;65834;52.364;9.754;2023-08-24T13:03:33;100723.75;;;24.82;53.83
76864;BME280;65834;52.364;9.754;2023-08-24T13:06:05;100724.00;;;24.91;53.96
76864;BME280;65834;52.364;9.754;2023-08-24T13:08:50;100723.69;;;25.02;53.71
76864;BME280;65834;52.364;9.754;2023-08-24T13:11:21;100710.13;;;25.06;53.32
76864;BME280;65834;52.364;9.754;2023-08-24T13:13:50;100711.19;;;25.20;52.12